KEKO

Elko Regional Airport

Elko, Nevada, USA
METAR KEKO 252156Z AUTO 19016G23KT 10SM FEW120 27/M01 A2986 RMK AO2 PK WND 18030/2123 SLP063 T02721011
Observed Flight Rules
May-25 @ 21:56 UTC (42 minutes ago) Visual Flight Rules
Wind Visibility Clouds
190° at 16 knots
 Gusting to 23 knots
10 miles
  • Few at 12,000' AGL
Temperatures Readings
Current 27°C / 81°F
Dewpoint -1°C / 30°F
Humidity 16%
Altimeter 29.86" Hg
Pressure 1006.3 hPa
Elevation 1547
METAR KEKO 252156Z AUTO 19016G23KT 10SM FEW120 27/M01 A2986 RMK AO2 PK WND 18030/2123 SLP063 T02721011
Observed Flight Rules
May-25 @ 21:56 UTC
(42 minutes ago)
VFR
Wind Visibility
190° at 16 knots
 Gusting to 23 knots
10 miles
Clouds
  • Few at 12,000' AGL
Temperature Dewpoint
27°C / 81°F -1°C / 30°F
Humidity Altimeter Pressure
16% 29.86" Hg 1006.3 hPa